Saint Bonnet de Bellac- Haute Vienne - France
Donnes mto: mardi, 30/10/2012
Date Horaire Temp. E. Hum. E. P.atmo. Pluie Vent Direction Direction Ensoleilleme Solaire P. de rose Temp au vent Rafales
30/10/2012 10:06 14,1 C 58 % 1007,4 hPa 0,0 mm 0,0 km/h (0 Bft) E-SE 112 0 min 0 W/m 6,0 C 14,1 C 0,0 km/h (0 Bft)
30/10/2012 10:07 14,4 C 58 % 1007,5 hPa 0,0 mm 0,0 km/h (0 Bft) E-SE 112 0 min 0 W/m 6,2 C 14,4 C 0,0 km/h (0 Bft)
30/10/2012 10:08 14,8 C 57 % 1007,6 hPa 0,0 mm 0,0 km/h (0 Bft) E-SE 112 0 min 0 W/m 6,4 C 14,8 C 1,4 km/h (1 Bft)
30/10/2012 10:09 14,8 C 56 % 1007,6 hPa 0,0 mm 0,0 km/h (0 Bft) E-SE 112 0 min 0 W/m 6,1 C 14,8 C 0,0 km/h (0 Bft)
30/10/2012 10:10 14,8 C 57 % 1007,6 hPa 0,0 mm 0,0 km/h (0 Bft) E-SE 112 0 min 0 W/m 6,4 C 14,8 C 0,0 km/h (0 Bft)
30/10/2012 10:11 14,7 C 56 % 1007,6 hPa 0,0 mm 0,0 km/h (0 Bft) E-SE 112 0 min 0 W/m 6,0 C 14,7 C 2,9 km/h (1 Bft)
30/10/2012 10:12 14,8 C 56 % 1007,6 hPa 0,0 mm 0,0 km/h (0 Bft) E-SE 112 0 min 0 W/m 6,1 C 14,8 C 2,9 km/h (1 Bft)
30/10/2012 10:13 14,8 C 55 % 1007,6 hPa 0,0 mm 0,0 km/h (0 Bft) E-NE 67 0 min 0 W/m 5,8 C 14,8 C 2,2 km/h (1 Bft)
30/10/2012 10:14 14,9 C 56 % 1007,7 hPa 0,0 mm 0,0 km/h (0 Bft) E-NE 67 0 min 0 W/m 6,2 C 14,9 C 0,0 km/h (0 Bft)
30/10/2012 10:15 15,2 C 56 % 1007,7 hPa 0,0 mm 0,0 km/h (0 Bft) E-NE 67 0 min 0 W/m 6,5 C 15,2 C 0,0 km/h (0 Bft)
30/10/2012 10:16 15,3 C 56 % 1007,7 hPa 0,0 mm 0,0 km/h (0 Bft) E-NE 67 0 min 0 W/m 6,6 C 15,3 C 0,0 km/h (0 Bft)
30/10/2012 10:17 15,5 C 55 % 1008,8 hPa 0,0 mm 0,0 km/h (0 Bft) E-NE 67 0 min 0 W/m 6,5 C 15,5 C 0,0 km/h (0 Bft)
30/10/2012 10:18 15,5 C 55 % 1008,8 hPa 0,0 mm 0,0 km/h (0 Bft) E-NE 67 0 min 0 W/m 6,5 C 15,5 C 0,0 km/h (0 Bft)
30/10/2012 10:19 15,5 C 55 % 1008,8 hPa 0,0 mm 0,0 km/h (0 Bft) E-NE 67 0 min 0 W/m 6,5 C 15,5 C 0,0 km/h (0 Bft)
30/10/2012 10:20 15,6 C 55 % 1008,8 hPa 0,0 mm 0,0 km/h (0 Bft) E-NE 67 0 min 0 W/m 6,6 C 15,6 C 0,0 km/h (0 Bft)
30/10/2012 10:21 15,4 C 55 % 1008,8 hPa 0,0 mm 0,0 km/h (0 Bft) E-NE 67 0 min 0 W/m 6,4 C 15,4 C 0,0 km/h (0 Bft)
30/10/2012 10:22 15,6 C 55 % 1008,7 hPa 0,0 mm 0,0 km/h (0 Bft) E-NE 67 0 min 0 W/m 6,6 C 15,6 C 0,0 km/h (0 Bft)
30/10/2012 10:23 15,6 C 54 % 1008,7 hPa 0,0 mm 0,4 km/h (0 Bft) E-NE 67 0 min 0 W/m 6,3 C 15,6 C 3,6 km/h (1 Bft)
30/10/2012 10:24 15,1 C 55 % 1008,7 hPa 0,0 mm 0,0 km/h (0 Bft) E-NE 67 0 min 0 W/m 6,1 C 15,1 C 0,0 km/h (0 Bft)
30/10/2012 10:25 14,9 C 55 % 1008,7 hPa 0,0 mm 0,0 km/h (0 Bft) E-NE 67 0 min 0 W/m 5,9 C 14,9 C 0,0 km/h (0 Bft)
30/10/2012 10:26 15,1 C 56 % 1008,7 hPa 0,0 mm 0,0 km/h (0 Bft) E-NE 67 0 min 0 W/m 6,4 C 15,1 C 0,0 km/h (0 Bft)
30/10/2012 10:27 15,2 C 55 % 1008,7 hPa 0,0 mm 0,0 km/h (0 Bft) E-NE 67 0 min 0 W/m 6,2 C 15,2 C 1,4 km/h (1 Bft)
30/10/2012 10:28 15,4 C 55 % 1008,7 hPa 0,0 mm 0,4 km/h (0 Bft) E-NE 67 0 min 0 W/m 6,4 C 15,4 C 3,6 km/h (1 Bft)
30/10/2012 10:29 15,3 C 54 % 1008,7 hPa 0,0 mm 1,8 km/h (1 Bft) E-NE 67 0 min 0 W/m 6,0 C 15,3 C 4,0 km/h (1 Bft)
30/10/2012 10:30 15,5 C 54 % 1008,8 hPa 0,0 mm 0,7 km/h (0 Bft) E-NE 67 0 min 0 W/m 6,2 C 15,5 C 3,6 km/h (1 Bft)
30/10/2012 10:31 15,5 C 54 % 1008,8 hPa 0,0 mm 1,1 km/h (1 Bft) E-NE 67 0 min 0 W/m 6,2 C 15,5 C 1,1 km/h (1 Bft)
30/10/2012 10:32 15,5 C 54 % 1008,7 hPa 0,0 mm 0,7 km/h (0 Bft) E-NE 67 0 min 0 W/m 6,2 C 15,5 C 4,3 km/h (1 Bft)
30/10/2012 10:33 15,5 C 54 % 1008,8 hPa 0,0 mm 0,7 km/h (0 Bft) E-NE 67 0 min 0 W/m 6,2 C 15,5 C 4,0 km/h (1 Bft)
30/10/2012 10:34 15,5 C 54 % 1008,8 hPa 0,0 mm 0,0 km/h (0 Bft) E-NE 67 0 min 0 W/m 6,2 C 15,5 C 0,0 km/h (0 Bft)
30/10/2012 10:35 15,6 C 54 % 1008,8 hPa 0,0 mm 0,7 km/h (0 Bft) E-NE 67 0 min 0 W/m 6,3 C 15,6 C 3,2 km/h (1 Bft)
30/10/2012 10:36 15,1 C 52 % 1008,8 hPa 0,0 mm 0,4 km/h (0 Bft) E-NE 67 0 min 0 W/m 5,3 C 15,1 C 0,4 km/h (0 Bft)
30/10/2012 10:37 15,3 C 55 % 1008,7 hPa 0,0 mm 0,4 km/h (0 Bft) E-NE 67 0 min 0 W/m 6,3 C 15,3 C 4,0 km/h (1 Bft)
30/10/2012 10:38 15,7 C 55 % 1008,7 hPa 0,0 mm 0,4 km/h (0 Bft) E-NE 67 0 min 0 W/m 6,7 C 15,7 C 3,2 km/h (1 Bft)
30/10/2012 10:39 15,9 C 54 % 1008,7 hPa 0,0 mm 0,0 km/h (0 Bft) E-NE 67 0 min 0 W/m 6,6 C 15,9 C 0,0 km/h (0 Bft)
30/10/2012 10:40 16,3 C 53 % 1008,7 hPa 0,0 mm 1,1 km/h (1 Bft) E-NE 67 0 min 0 W/m 6,7 C 16,3 C 4,0 km/h (1 Bft)
30/10/2012 10:41 16,2 C 53 % 1008,7 hPa 0,0 mm 0,0 km/h (0 Bft) E-NE 67 0 min 0 W/m 6,6 C 16,2 C 0,0 km/h (0 Bft)
30/10/2012 10:42 16,5 C 50 % 1008,7 hPa 0,0 mm 0,0 km/h (0 Bft) E-NE 67 0 min 0 W/m 6,0 C 16,5 C 0,0 km/h (0 Bft)
30/10/2012 10:43 14,6 C 53 % 1008,7 hPa 0,0 mm 1,8 km/h (1 Bft) E-SE 112 0 min 0 W/m 5,1 C 14,6 C 4,0 km/h (1 Bft)
30/10/2012 10:44 14,5 C 56 % 1008,6 hPa 0,0 mm 0,0 km/h (0 Bft) E-SE 112 0 min 0 W/m 5,8 C 14,5 C 0,0 km/h (0 Bft)
30/10/2012 10:45 15,2 C 56 % 1008,6 hPa 0,0 mm 0,0 km/h (0 Bft) E-SE 112 0 min 0 W/m 6,5 C 15,2 C 0,0 km/h (0 Bft)
30/10/2012 10:46 15,6 C 54 % 1008,6 hPa 0,0 mm 0,0 km/h (0 Bft) E-SE 112 0 min 0 W/m 6,3 C 15,6 C 0,0 km/h (0 Bft)
30/10/2012 10:47 15,9 C 53 % 1008,6 hPa 0,0 mm 0,0 km/h (0 Bft) E-SE 112 0 min 0 W/m 6,3 C 15,9 C 0,0 km/h (0 Bft)
30/10/2012 10:48 16,4 C 52 % 1008,6 hPa 0,0 mm 0,0 km/h (0 Bft) E-SE 112 0 min 0 W/m 6,5 C 16,4 C 0,0 km/h (0 Bft)
30/10/2012 10:49 16,6 C 50 % 1008,6 hPa 0,0 mm 0,0 km/h (0 Bft) E-SE 112 0 min 0 W/m 6,1 C 16,6 C 0,0 km/h (0 Bft)
30/10/2012 10:50 16,6 C 51 % 1008,6 hPa 0,0 mm 0,0 km/h (0 Bft) E-SE 112 0 min 0 W/m 6,4 C 16,6 C 0,0 km/h (0 Bft)
30/10/2012 10:51 16,6 C 50 % 1008,6 hPa 0,0 mm 0,4 km/h (0 Bft) E-SE 112 0 min 0 W/m 6,1 C 16,6 C 3,2 km/h (1 Bft)
30/10/2012 10:52 16,9 C 50 % 1008,6 hPa 0,0 mm 0,0 km/h (0 Bft) E-SE 112 0 min 0 W/m 6,4 C 16,9 C 0,0 km/h (0 Bft)
30/10/2012 10:53 16,8 C 50 % 1008,5 hPa 0,0 mm 0,0 km/h (0 Bft) E 90 0 min 0 W/m 6,3 C 16,8 C 0,0 km/h (0 Bft)
30/10/2012 10:54 16,6 C 50 % 1008,5 hPa 0,0 mm 1,4 km/h (1 Bft) E 90 0 min 0 W/m 6,1 C 16,6 C 1,4 km/h (1 Bft)
30/10/2012 10:55 16,8 C 50 % 1008,5 hPa 0,0 mm 0,0 km/h (0 Bft) E 90 0 min 0 W/m 6,3 C 16,8 C 0,0 km/h (0 Bft)
30/10/2012 10:56 16,8 C 50 % 1008,5 hPa 0,0 mm 0,0 km/h (0 Bft) E 90 0 min 0 W/m 6,3 C 16,8 C 0,0 km/h (0 Bft)
30/10/2012 10:57 16,6 C 50 % 1008,5 hPa 0,0 mm 0,4 km/h (0 Bft) E 90 0 min 0 W/m 6,1 C 16,6 C 2,9 km/h (1 Bft)
30/10/2012 10:58 16,8 C 50 % 1008,5 hPa 0,0 mm 1,1 km/h (1 Bft) E 90 0 min 0 W/m 6,3 C 16,8 C 3,6 km/h (1 Bft)
30/10/2012 10:59 16,8 C 48 % 1008,5 hPa 0,0 mm 0,0 km/h (0 Bft) E 90 0 min 0 W/m 5,7 C 16,8 C 0,0 km/h (0 Bft)
30/10/2012 11:00 16,8 C 51 % 1008,5 hPa 0,0 mm 0,0 km/h (0 Bft) E 90 0 min 0 W/m 6,6 C 16,8 C 0,0 km/h (0 Bft)
30/10/2012 11:01 16,5 C 49 % 1008,5 hPa 0,0 mm 0,0 km/h (0 Bft) E 90 0 min 0 W/m 5,8 C 16,5 C 0,0 km/h (0 Bft)
30/10/2012 11:02 16,4 C 51 % 1008,5 hPa 0,0 mm 0,0 km/h (0 Bft) E 90 0 min 0 W/m 6,2 C 16,4 C 0,0 km/h (0 Bft)
30/10/2012 11:03 16,6 C 52 % 1008,5 hPa 0,0 mm 0,0 km/h (0 Bft) E 90 0 min 0 W/m 6,7 C 16,6 C 0,0 km/h (0 Bft)
30/10/2012 11:04 17,1 C 51 % 1008,5 hPa 0,0 mm 0,7 km/h (0 Bft) E 90 0 min 0 W/m 6,9 C 17,1 C 3,2 km/h (1 Bft)
30/10/2012 11:05 16,9 C 50 % 1008,5 hPa 0,0 mm 0,0 km/h (0 Bft) E 90 0 min 0 W/m 6,4 C 16,9 C 0,0 km/h (0 Bft)
30/10/2012 11:06 17,1 C 51 % 1008,6 hPa 0,0 mm 0,7 km/h (0 Bft) E 90 0 min 0 W/m 6,9 C 17,1 C 3,2 km/h (1 Bft)
30/10/2012 11:10 16,9 C 53 % 1008,6 hPa 0,0 mm 0,0 km/h (0 Bft) E 90 0 min 0 W/m 7,3 C 16,9 C 0,0 km/h (0 Bft)
30/10/2012 11:20 13,4 C 58 % 1008,6 hPa 0,0 mm 0,4 km/h (0 Bft) E-NE 67 0 min 0 W/m 5,3 C 13,4 C 4,0 km/h (1 Bft)
30/10/2012 11:30 15,9 C 52 % 1008,3 hPa 0,0 mm 0,0 km/h (0 Bft) E 90 0 min 0 W/m 6,1 C 15,9 C 0,0 km/h (0 Bft)
30/10/2012 11:45 15,2 C 50 % 1008,3 hPa 0,0 mm 0,4 km/h (0 Bft) E-NE 67 0 min 0 W/m 4,8 C 15,2 C 0,4 km/h (0 Bft)
30/10/2012 12:00 14,6 C 45 % 1008,3 hPa 0,0 mm 2,5 km/h (1 Bft) E 90 0 min 0 W/m 2,8 C 14,6 C 6,8 km/h (2 Bft)
30/10/2012 12:30 14,5 C 51 % 1008,0 hPa 0,0 mm 2,5 km/h (1 Bft) N 360 0 min 0 W/m 4,5 C 14,5 C 4,3 km/h (1 Bft)
30/10/2012 13:00 14,2 C 51 % 1007,6 hPa 0,0 mm 4,7 km/h (1 Bft) NE 45 0 min 0 W/m 4,2 C 14,2 C 7,2 km/h (2 Bft)
30/10/2012 13:30 14,8 C 50 % 1007,0 hPa 0,0 mm 4,3 km/h (1 Bft) N 360 0 min 0 W/m 4,5 C 14,8 C 9,4 km/h (2 Bft)
30/10/2012 14:00 14,5 C 49 % 1006,5 hPa 0,0 mm 4,7 km/h (1 Bft) NE 45 0 min 0 W/m 3,9 C 14,5 C 4,7 km/h (1 Bft)
30/10/2012 14:30 14,9 C 47 % 1005,9 hPa 0,0 mm 1,4 km/h (1 Bft) E-NE 67 0 min 0 W/m 3,7 C 14,9 C 4,3 km/h (1 Bft)
30/10/2012 15:00 14,5 C 49 % 1005,8 hPa 0,0 mm 2,5 km/h (1 Bft) N-NE 22 0 min 0 W/m 3,9 C 14,5 C 2,9 km/h (1 Bft)
30/10/2012 15:30 14,1 C 55 % 1005,5 hPa 0,0 mm 5,0 km/h (1 Bft) N 360 0 min 0 W/m 5,2 C 14,1 C 7,6 km/h (2 Bft)
30/10/2012 16:00 13,5 C 57 % 1005,3 hPa 0,0 mm 0,7 km/h (0 Bft) NE 45 0 min 0 W/m 5,2 C 13,5 C 4,0 km/h (1 Bft)
30/10/2012 16:30 12,6 C 58 % 1004,9 hPa 0,0 mm 0,0 km/h (0 Bft) N-NE 22 0 min 0 W/m 4,6 C 12,6 C 0,0 km/h (0 Bft)
30/10/2012 17:00 11,5 C 60 % 1004,8 hPa 0,0 mm 1,4 km/h (1 Bft) N-NE 22 0 min 0 W/m 4,0 C 11,5 C 3,6 km/h (1 Bft)
30/10/2012 17:30 11,1 C 62 % 1004,6 hPa 0,0 mm 0,0 km/h (0 Bft) N-NE 22 0 min 0 W/m 4,1 C 11,1 C 0,0 km/h (0 Bft)
30/10/2012 18:00 9,1 C 64 % 1004,7 hPa 0,0 mm 0,0 km/h (0 Bft) N-NE 22 0 min 0 W/m 2,7 C 9,1 C 0,0 km/h (0 Bft)
30/10/2012 18:30 7,4 C 67 % 1004,6 hPa 0,0 mm 0,0 km/h (0 Bft) N-NE 22 0 min 0 W/m 1,7 C 7,4 C 0,0 km/h (0 Bft)
30/10/2012 19:00 5,9 C 70 % 1004,8 hPa 0,0 mm 0,0 km/h (0 Bft) N-NE 22 0 min 0 W/m 0,9 C 5,9 C 0,0 km/h (0 Bft)
30/10/2012 19:30 5,1 C 72 % 1004,7 hPa 0,0 mm 0,0 km/h (0 Bft) NE 45 0 min 0 W/m 0,5 C 5,1 C 0,0 km/h (0 Bft)
30/10/2012 20:00 4,3 C 74 % 1004,5 hPa 0,0 mm 0,0 km/h (0 Bft) N-NE 22 0 min 0 W/m 0,1 C 4,3 C 0,0 km/h (0 Bft)
30/10/2012 20:30 3,8 C 76 % 1004,3 hPa 0,0 mm 0,0 km/h (0 Bft) E 90 0 min 0 W/m -0,0 C 3,8 C 0,0 km/h (0 Bft)
30/10/2012 21:00 3,2 C 76 % 1004,2 hPa 0,0 mm 0,0 km/h (0 Bft) E 90 0 min 0 W/m -0,6 C 3,2 C 0,0 km/h (0 Bft)
30/10/2012 21:30 2,8 C 79 % 1004,2 hPa 0,0 mm 0,0 km/h (0 Bft) E 90 0 min 0 W/m -0,5 C 2,8 C 0,0 km/h (0 Bft)
30/10/2012 22:00 2,6 C 81 % 1004,0 hPa 0,0 mm 0,0 km/h (0 Bft) E 90 0 min 0 W/m -0,3 C 2,6 C 0,0 km/h (0 Bft)
30/10/2012 22:30 2,2 C 82 % 1003,9 hPa 0,0 mm 0,4 km/h (0 Bft) E-SE 112 0 min 0 W/m -0,5 C 2,2 C 3,6 km/h (1 Bft)
30/10/2012 23:00 2,6 C 85 % 1003,6 hPa 0,0 mm 1,1 km/h (1 Bft) E-SE 112 0 min 0 W/m 0,3 C 2,6 C 1,1 km/h (1 Bft)
30/10/2012 23:30 2,4 C 86 % 1003,5 hPa 0,0 mm 4,0 km/h (1 Bft) E-SE 112 0 min 0 W/m 0,3 C 2,4 C 4,0 km/h (1 Bft)
_ Min-Heure 22:30 12:00 23:30 - 22:00 - - - - 21:00 22:30 22:00
Minimum _ 2,2 C 45 % 1003,5 hPa - 0,0 km/h (0 Bft) - - - - -0,6 C 2,2 C 0,0 km/h (0 Bft)
_ Max-Heure 11:06 23:30 10:36 23:30 15:30 - - 23:30 23:30 11:10 11:06 13:30
Maximum _ 17,1 C 86 % 1008,8 hPa 0,0 mm 5,0 km/h
N (1 Bft)
- - 0 min 0 W/m 7,3 C 17,1 C 9,4 km/h
N (2 Bft)
Moyenne _ 10,3 C 63 % 1005,8 hPa #0,0 mm 1,1 km/h (1 Bft) E-NE - #0 min. 0 W/m 3,2 C 10,3 C 2,1 km/h (1 Bft)
Saint Bonnet de Bellac- Haute Vienne - France